createdAt,value
2019-05-25T00:00:34.942Z,7.05
2019-05-25T00:03:17.351Z,7.85
2019-05-25T00:05:47.711Z,7.00
2019-05-25T00:08:17.895Z,7.33
2019-05-25T00:10:48.110Z,8.30
2019-05-25T00:13:18.316Z,8.00
2019-05-25T00:15:48.574Z,8.38
2019-05-25T00:18:18.766Z,8.83
2019-05-25T00:20:48.978Z,7.90
2019-05-25T00:23:19.244Z,8.75
2019-05-25T00:25:49.523Z,8.55
2019-05-25T00:28:19.718Z,9.38
2019-05-25T00:30:50.011Z,8.38
2019-05-25T00:33:20.261Z,9.08
2019-05-25T00:35:50.538Z,8.48
2019-05-25T00:38:20.803Z,9.68
2019-05-25T00:40:51.026Z,8.90
2019-05-25T00:43:21.224Z,8.58
2019-05-25T00:45:51.472Z,9.03
2019-05-25T00:48:21.707Z,8.70
2019-05-25T00:50:52.806Z,8.30
2019-05-25T00:53:22.990Z,8.63
2019-05-25T00:55:53.218Z,7.80
2019-05-25T00:58:23.424Z,8.25
2019-05-25T01:00:53.650Z,7.95
2019-05-25T01:06:10.352Z,8.38
2019-05-25T01:08:41.130Z,9.15
2019-05-25T01:11:11.489Z,8.60
2019-05-25T01:13:41.752Z,9.95
2019-05-25T01:16:13.305Z,9.28
2019-05-25T01:18:43.494Z,9.50
2019-05-25T01:21:14.097Z,9.35
2019-05-25T01:23:44.423Z,10.07
2019-05-25T01:26:14.636Z,9.20
2019-05-25T01:28:44.828Z,9.53
2019-05-25T01:31:16.036Z,9.05
2019-05-25T01:33:46.303Z,8.48
2019-05-25T01:36:16.527Z,9.25
2019-05-25T01:38:46.703Z,9.25
2019-05-25T01:41:16.924Z,9.48
2019-05-25T01:43:47.106Z,9.05
2019-05-25T01:46:17.344Z,8.85
2019-05-25T01:48:47.539Z,8.65
2019-05-25T01:51:17.758Z,8.75
2019-05-25T01:53:47.940Z,8.88
2019-05-25T01:56:18.146Z,8.85
2019-05-25T01:58:48.355Z,8.55
2019-05-25T02:01:18.567Z,8.60
2019-05-25T02:03:48.752Z,8.20
2019-05-25T02:06:18.958Z,8.58
2019-05-25T02:08:49.156Z,9.03
2019-05-25T02:11:19.366Z,8.75
2019-05-25T02:13:49.699Z,8.78
2019-05-25T02:16:20.055Z,9.05
2019-05-25T02:19:26.852Z,8.37
2019-05-25T02:21:57.076Z,8.03
2019-05-25T02:24:27.271Z,8.40
2019-05-25T02:26:57.467Z,8.20
2019-05-25T02:29:27.661Z,8.70
2019-05-25T02:31:58.679Z,8.85
2019-05-25T02:34:29.131Z,8.10
2019-05-25T02:36:59.349Z,8.23
2019-05-25T02:39:29.562Z,8.95
2019-05-25T02:41:59.972Z,7.75
2019-05-25T02:44:30.170Z,7.67
2019-05-25T02:47:00.483Z,8.58
2019-05-25T02:49:30.850Z,6.23
2019-05-25T02:52:01.044Z,8.93
2019-05-25T02:54:31.255Z,9.23
2019-05-25T02:57:01.457Z,8.90
2019-05-25T02:59:31.658Z,8.73
2019-05-25T03:02:02.016Z,8.68
2019-05-25T03:04:32.375Z,9.23
2019-05-25T03:07:02.550Z,8.93
2019-05-25T03:09:32.769Z,8.55
2019-05-25T03:12:02.947Z,8.60
2019-05-25T03:14:33.162Z,8.63
2019-05-25T03:17:03.423Z,8.38
2019-05-25T03:19:51.823Z,7.40
2019-05-25T03:22:22.113Z,7.78
2019-05-25T03:24:52.318Z,7.75
2019-05-25T03:27:22.536Z,8.33
2019-05-25T03:29:52.744Z,8.30
2019-05-25T03:32:23.019Z,7.80
2019-05-25T03:34:53.495Z,7.80
2019-05-25T03:37:23.768Z,8.75
2019-05-25T03:39:53.952Z,8.40
2019-05-25T03:42:24.172Z,8.30
2019-05-25T03:44:55.620Z,8.55
2019-05-25T03:47:25.835Z,8.95
2019-05-25T03:49:56.020Z,8.68
2019-05-25T03:52:26.254Z,8.70
2019-05-25T03:54:56.500Z,7.72
2019-05-25T03:57:26.785Z,8.45
2019-05-25T03:59:56.963Z,9.93
2019-05-25T04:02:27.189Z,8.68
2019-05-25T04:04:57.682Z,8.60
2019-05-25T04:07:27.884Z,8.70
2019-05-25T04:09:58.074Z,7.45
2019-05-25T04:12:28.420Z,7.85
2019-05-25T04:14:58.599Z,8.35
2019-05-25T04:17:28.831Z,7.97
2019-05-25T04:19:59.019Z,8.15
2019-05-25T04:22:29.254Z,8.10
2019-05-25T04:24:59.511Z,8.45
2019-05-25T04:27:29.711Z,8.85
2019-05-25T04:29:59.946Z,8.53
2019-05-25T04:32:30.152Z,9.30
2019-05-25T04:35:00.337Z,7.97
2019-05-25T04:37:30.537Z,7.33
2019-05-25T04:40:00.741Z,6.92
2019-05-25T04:42:31.214Z,6.40
2019-05-25T04:45:01.477Z,5.90
2019-05-25T04:47:31.791Z,7.03
2019-05-25T04:50:01.979Z,7.85
2019-05-25T04:52:32.258Z,7.75
2019-05-25T04:55:02.458Z,7.97
2019-05-25T04:57:32.815Z,8.13
2019-05-25T05:00:04.144Z,7.80
2019-05-25T05:02:34.353Z,7.15
2019-05-25T05:05:38.077Z,7.70
2019-05-25T05:08:08.368Z,7.85
2019-05-25T05:10:38.595Z,7.62
2019-05-25T05:13:08.808Z,6.30
2019-05-25T05:15:39.073Z,6.60
2019-05-25T05:18:09.481Z,6.95
2019-05-25T05:20:39.752Z,39.67
2019-05-25T05:23:09.988Z,99.28
2019-05-25T05:25:40.248Z,53.85
2019-05-25T05:28:10.534Z,19.52
2019-05-25T05:30:40.728Z,9.13
2019-05-25T05:33:10.931Z,9.03
2019-05-25T05:35:41.119Z,7.10
2019-05-25T05:38:11.445Z,6.25
2019-05-25T05:40:41.967Z,6.45
2019-05-25T05:43:12.180Z,5.35
2019-05-25T05:45:43.089Z,5.55
2019-05-25T05:48:13.635Z,5.62
2019-05-25T05:50:43.995Z,5.60
2019-05-25T05:53:14.210Z,5.25
2019-05-25T05:55:44.417Z,5.45
2019-05-25T05:58:14.646Z,5.45
2019-05-25T06:00:44.837Z,4.15
2019-05-25T06:03:15.046Z,3.60
2019-05-25T06:05:45.223Z,3.80
2019-05-25T06:08:15.446Z,3.55
2019-05-25T06:10:45.749Z,3.75
2019-05-25T06:13:16.931Z,3.10
2019-05-25T06:15:47.107Z,3.20
2019-05-25T06:18:17.376Z,3.60
2019-05-25T06:20:47.560Z,3.10
2019-05-25T06:23:17.763Z,2.98
2019-05-25T06:25:47.933Z,2.70
2019-05-25T06:28:22.159Z,2.60
2019-05-25T06:30:50.003Z,2.58
2019-05-25T06:33:20.211Z,2.40
2019-05-25T06:38:21.028Z,2.17
2019-05-25T06:40:51.382Z,1.67
2019-05-25T06:43:21.619Z,1.90
2019-05-25T06:45:51.795Z,2.02
2019-05-25T06:48:21.999Z,2.20
2019-05-25T06:50:52.184Z,2.17
2019-05-25T06:53:22.494Z,1.95
2019-05-25T06:55:52.709Z,1.90
2019-05-25T06:58:22.910Z,2.25
2019-05-25T07:00:53.146Z,1.70
2019-05-25T07:03:23.389Z,2.15
2019-05-25T07:05:53.698Z,1.90
2019-05-25T07:08:23.927Z,2.12
2019-05-25T07:10:54.107Z,2.00
2019-05-25T07:13:24.394Z,1.95
2019-05-25T07:15:54.573Z,1.90
2019-05-25T07:18:24.771Z,2.05
2019-05-25T07:21:11.534Z,2.30
2019-05-25T07:23:41.781Z,2.40
2019-05-25T07:26:11.950Z,2.15
2019-05-25T07:28:42.156Z,2.10
2019-05-25T07:31:12.653Z,1.83
2019-05-25T07:33:42.898Z,1.52
2019-05-25T07:36:13.160Z,1.82
2019-05-25T07:38:43.340Z,2.17
2019-05-25T07:41:13.625Z,1.90
2019-05-25T07:43:43.877Z,2.00
2019-05-25T07:46:17.061Z,2.33
2019-05-25T07:48:46.283Z,1.90
2019-05-25T07:51:16.482Z,2.40
2019-05-25T07:53:46.659Z,2.50
2019-05-25T07:56:16.902Z,2.30
2019-05-25T07:58:47.129Z,2.45
2019-05-25T08:01:17.335Z,2.77
2019-05-25T08:03:47.642Z,2.50
2019-05-25T08:06:17.948Z,2.53
2019-05-25T08:08:49.658Z,2.12
2019-05-25T08:11:19.854Z,2.27
2019-05-25T08:13:50.051Z,1.80
2019-05-25T08:16:20.234Z,1.80
2019-05-25T08:18:50.440Z,1.85
2019-05-25T08:21:20.617Z,2.20
2019-05-25T08:23:50.848Z,2.17
2019-05-25T08:26:21.105Z,2.08
2019-05-25T08:28:51.564Z,1.90
2019-05-25T08:31:21.751Z,2.30
2019-05-25T08:33:51.964Z,2.22
2019-05-25T08:36:22.130Z,2.45
2019-05-25T08:39:31.240Z,2.40
2019-05-25T08:42:01.425Z,2.33
2019-05-25T08:44:31.635Z,2.30
2019-05-25T08:47:01.839Z,2.72
2019-05-25T08:49:32.035Z,2.70
2019-05-25T08:52:04.170Z,2.27
2019-05-25T08:54:34.159Z,2.27
2019-05-25T08:57:04.463Z,2.42
2019-05-25T08:59:34.671Z,2.30
2019-05-25T09:02:04.901Z,2.45
2019-05-25T09:04:35.234Z,2.08
2019-05-25T09:07:05.436Z,2.17
2019-05-25T09:09:35.638Z,2.70
2019-05-25T09:12:05.826Z,2.50
2019-05-25T09:14:36.020Z,2.58
2019-05-25T09:17:06.273Z,2.33
2019-05-25T09:19:36.473Z,2.10
2019-05-25T09:22:06.706Z,2.45
2019-05-25T09:24:36.951Z,2.22
2019-05-25T09:27:07.347Z,2.00
2019-05-25T09:29:37.698Z,2.10
2019-05-25T09:32:07.875Z,2.80
2019-05-25T09:37:08.465Z,1.42
2019-05-25T09:39:38.680Z,2.20
2019-05-25T09:42:08.993Z,2.47
2019-05-25T09:44:39.192Z,2.07
2019-05-25T09:47:09.395Z,2.60
2019-05-25T09:49:39.572Z,2.17
2019-05-25T09:52:09.779Z,1.95
2019-05-25T09:54:39.961Z,2.70
2019-05-25T09:57:10.228Z,2.27
2019-05-25T09:59:41.569Z,2.03
2019-05-25T10:02:13.450Z,1.52
2019-05-25T10:04:44.472Z,1.85
2019-05-25T10:07:14.748Z,2.10
2019-05-25T10:09:45.008Z,2.13
2019-05-25T10:12:16.278Z,2.00
2019-05-25T10:14:47.685Z,1.77
2019-05-25T10:17:17.886Z,2.07
2019-05-25T10:19:48.075Z,2.10
2019-05-25T10:22:18.381Z,2.27
2019-05-25T10:24:48.579Z,2.27
2019-05-25T10:27:18.859Z,2.20
2019-05-25T10:29:49.040Z,2.83
2019-05-25T10:32:19.367Z,2.50
2019-05-25T10:34:49.590Z,2.80
2019-05-25T10:37:19.805Z,2.40
2019-05-25T10:39:50.106Z,2.37
2019-05-25T10:42:20.341Z,2.77
2019-05-25T10:44:50.543Z,2.83
2019-05-25T10:47:20.727Z,2.40
2019-05-25T10:49:51.046Z,2.35
2019-05-25T10:52:21.294Z,2.30
2019-05-25T10:54:51.590Z,2.90
2019-05-25T10:57:21.771Z,2.50
2019-05-25T10:59:53.427Z,3.27
2019-05-25T11:02:24.839Z,2.90
2019-05-25T11:04:55.381Z,2.90
2019-05-25T11:07:25.616Z,3.12
2019-05-25T11:09:55.904Z,3.73
2019-05-25T11:12:26.245Z,3.50
2019-05-25T11:14:57.429Z,2.87
2019-05-25T11:17:27.860Z,2.80
2019-05-25T11:19:58.207Z,3.00
2019-05-25T11:22:28.469Z,2.73
2019-05-25T11:24:58.862Z,2.40
2019-05-25T11:27:29.171Z,2.45
2019-05-25T11:30:08.639Z,2.80
2019-05-25T11:32:31.275Z,3.52
2019-05-25T11:35:01.477Z,2.83
2019-05-25T11:37:31.675Z,2.90
2019-05-25T11:40:01.883Z,3.02
2019-05-25T11:42:32.096Z,2.70
2019-05-25T11:45:02.487Z,2.50
2019-05-25T11:47:32.854Z,2.30
2019-05-25T11:50:04.292Z,3.00
2019-05-25T11:52:34.646Z,3.00
2019-05-25T11:55:10.427Z,2.67
2019-05-25T11:57:40.637Z,2.67
2019-05-25T12:00:24.846Z,2.70
2019-05-25T12:02:47.391Z,2.87
2019-05-25T12:05:17.564Z,3.02
2019-05-25T12:07:47.771Z,2.60
2019-05-25T12:10:55.650Z,2.80
2019-05-25T12:13:25.942Z,2.45
2019-05-25T12:15:56.193Z,2.73
2019-05-25T12:18:26.394Z,2.77
2019-05-25T12:20:56.572Z,2.90
2019-05-25T12:23:26.779Z,3.02
2019-05-25T12:26:16.574Z,3.30
2019-05-25T12:28:46.860Z,2.80
2019-05-25T12:31:17.050Z,2.83
2019-05-25T12:33:47.255Z,3.00
2019-05-25T12:36:17.510Z,3.27
2019-05-25T12:38:47.708Z,2.75
2019-05-25T12:41:17.936Z,2.55
2019-05-25T12:43:48.189Z,2.25
2019-05-25T12:46:18.373Z,2.83
2019-05-25T12:48:48.578Z,2.15
2019-05-25T12:51:18.756Z,2.80
2019-05-25T12:53:48.976Z,2.80
2019-05-25T12:56:19.215Z,2.80
2019-05-25T13:01:20.466Z,2.55
2019-05-25T13:03:50.823Z,2.17
2019-05-25T13:06:21.007Z,2.27
2019-05-25T13:08:51.379Z,2.42
2019-05-25T13:11:21.780Z,3.12
2019-05-25T13:13:52.024Z,2.90
2019-05-25T13:16:22.206Z,3.03
2019-05-25T13:18:53.392Z,2.75
2019-05-25T13:21:23.585Z,3.08
2019-05-25T13:23:54.136Z,2.83
2019-05-25T13:26:24.340Z,2.65
2019-05-25T13:28:54.542Z,1.95
2019-05-25T13:31:24.797Z,2.08
2019-05-25T13:33:55.075Z,1.97
2019-05-25T13:36:25.320Z,2.20
2019-05-25T13:38:55.658Z,2.17
2019-05-25T13:41:25.851Z,1.67
2019-05-25T13:43:56.057Z,2.47
2019-05-25T13:46:26.276Z,2.33
2019-05-25T13:48:56.527Z,3.30
2019-05-25T13:51:26.755Z,2.52
2019-05-25T13:53:56.952Z,2.22
2019-05-25T13:57:07.361Z,2.33
2019-05-25T13:59:37.630Z,2.45
2019-05-25T14:02:08.787Z,2.30
2019-05-25T14:04:39.234Z,3.30
2019-05-25T14:07:09.511Z,1.82
2019-05-25T14:09:39.779Z,1.72
2019-05-25T14:12:10.112Z,2.10
2019-05-25T14:14:40.311Z,2.10
2019-05-25T14:17:10.556Z,1.72
2019-05-25T14:19:41.610Z,2.00
2019-05-25T14:22:11.927Z,2.02
2019-05-25T14:24:42.127Z,2.00
2019-05-25T14:27:32.078Z,2.47
2019-05-25T14:30:02.281Z,2.70
2019-05-25T14:32:33.735Z,3.02
2019-05-25T14:35:04.099Z,2.45
2019-05-25T14:37:34.283Z,3.43
2019-05-25T14:40:11.089Z,3.02
2019-05-25T14:46:31.055Z,2.60
2019-05-25T14:49:01.459Z,2.15
2019-05-25T14:51:32.087Z,2.87
2019-05-25T14:54:02.292Z,3.02
2019-05-25T14:56:52.527Z,2.52
2019-05-25T14:59:23.031Z,2.70
2019-05-25T15:02:01.996Z,2.40
2019-05-25T15:04:25.288Z,2.70
2019-05-25T15:06:55.494Z,2.20
2019-05-25T15:09:25.715Z,2.22
2019-05-25T15:15:46.559Z,2.42
2019-05-25T15:18:16.771Z,1.98
2019-05-25T15:20:47.135Z,1.92
2019-05-25T15:23:36.781Z,11.93
2019-05-25T15:26:07.021Z,2.70
2019-05-25T15:28:37.339Z,2.25
2019-05-25T15:31:07.585Z,2.15
2019-05-25T15:33:37.919Z,2.27
2019-05-25T15:36:08.145Z,2.40
2019-05-25T15:38:38.352Z,2.72
2019-05-25T15:41:08.725Z,2.33
2019-05-25T15:43:57.070Z,2.72
2019-05-25T15:46:27.407Z,2.90
2019-05-25T15:48:58.767Z,2.60
2019-05-25T15:51:30.432Z,2.60
2019-05-25T15:54:02.308Z,2.30
2019-05-25T15:56:32.936Z,2.42
2019-05-25T15:59:23.627Z,2.40
2019-05-25T16:01:53.445Z,2.25
2019-05-25T16:04:23.697Z,2.17
2019-05-25T16:06:54.054Z,1.95
2019-05-25T16:09:24.227Z,2.08
2019-05-25T16:11:54.441Z,2.27
2019-05-25T16:14:42.744Z,2.12
2019-05-25T16:17:12.935Z,2.30
2019-05-25T16:19:43.129Z,2.27
2019-05-25T16:22:13.479Z,3.00
2019-05-25T16:24:43.721Z,2.40
2019-05-25T16:27:13.928Z,2.42
2019-05-25T16:29:44.123Z,2.45
2019-05-25T16:32:14.355Z,2.27
2019-05-25T16:34:44.537Z,2.22
2019-05-25T16:37:14.871Z,1.90
2019-05-25T16:39:45.173Z,2.30
2019-05-25T16:42:15.476Z,1.95
2019-05-25T16:45:06.751Z,2.40
2019-05-25T16:47:37.025Z,2.10
2019-05-25T16:50:08.486Z,2.47
2019-05-25T16:52:38.829Z,2.40
2019-05-25T16:55:09.272Z,2.70
2019-05-25T16:57:39.483Z,3.17
2019-05-25T17:00:29.148Z,2.55
2019-05-25T17:02:59.409Z,2.58
2019-05-25T17:05:29.688Z,3.02
2019-05-25T17:07:59.965Z,2.80
2019-05-25T17:10:30.195Z,2.65
2019-05-25T17:13:51.547Z,2.65
2019-05-25T17:16:35.167Z,3.67
2019-05-25T17:19:05.540Z,3.85
2019-05-25T17:21:35.749Z,3.92
2019-05-25T17:24:06.076Z,4.15
2019-05-25T17:26:36.296Z,5.20
2019-05-25T17:29:06.491Z,5.72
2019-05-25T17:31:36.686Z,4.65
2019-05-25T17:34:07.880Z,5.00
2019-05-25T17:36:38.067Z,4.12
2019-05-25T17:39:08.371Z,3.72
2019-05-25T17:41:40.593Z,3.77
2019-05-25T17:44:10.876Z,3.58
2019-05-25T17:46:41.072Z,4.22
2019-05-25T17:49:11.391Z,3.80
2019-05-25T17:51:41.585Z,3.72
2019-05-25T17:54:11.913Z,3.67
2019-05-25T17:56:42.123Z,4.12
2019-05-25T17:59:12.349Z,3.72
2019-05-25T18:01:42.569Z,3.87
2019-05-25T18:04:12.906Z,4.45
2019-05-25T18:06:43.179Z,3.90
2019-05-25T18:09:13.386Z,3.92
2019-05-25T18:11:43.606Z,3.12
2019-05-25T18:14:13.861Z,3.20
2019-05-25T18:16:44.153Z,3.52
2019-05-25T18:19:14.345Z,3.35
2019-05-25T18:21:44.913Z,3.25
2019-05-25T18:24:15.507Z,3.98
2019-05-25T18:26:46.092Z,3.98
2019-05-25T18:33:07.098Z,5.12
2019-05-25T18:35:37.343Z,4.55
2019-05-25T18:38:07.620Z,5.00
2019-05-25T18:40:38.213Z,5.45
2019-05-25T18:43:08.559Z,5.47
2019-05-25T18:49:20.828Z,6.25
2019-05-25T18:51:51.111Z,5.78
2019-05-25T18:54:21.715Z,5.95
2019-05-25T18:56:51.959Z,5.15
2019-05-25T18:59:22.287Z,5.40
2019-05-25T19:02:51.299Z,5.45
2019-05-25T19:05:21.511Z,6.22
2019-05-25T19:07:51.751Z,6.20
2019-05-25T19:10:21.963Z,5.58
2019-05-25T19:12:52.160Z,5.67
2019-05-25T19:15:43.151Z,5.92
2019-05-25T19:18:14.413Z,5.87
2019-05-25T19:20:44.654Z,5.80
2019-05-25T19:23:14.874Z,5.62
2019-05-25T19:25:45.093Z,6.80
2019-05-25T19:28:15.319Z,6.62
2019-05-25T19:30:45.605Z,6.72
2019-05-25T19:33:15.821Z,5.75
2019-05-25T19:35:46.077Z,5.42
2019-05-25T19:38:16.283Z,6.15
2019-05-25T19:40:46.483Z,5.90
2019-05-25T19:43:16.698Z,6.03
2019-05-25T19:45:47.563Z,6.53
2019-05-25T19:48:17.979Z,6.00
2019-05-25T19:50:48.355Z,5.15
2019-05-25T19:53:37.999Z,5.25
2019-05-25T19:56:08.211Z,5.17
2019-05-25T19:58:38.458Z,5.37
2019-05-25T20:05:15.955Z,5.87
2019-05-25T20:07:36.399Z,5.47
2019-05-25T20:12:37.318Z,5.37
2019-05-25T20:15:08.234Z,5.83
2019-05-25T20:17:58.493Z,5.95
2019-05-25T20:20:28.768Z,6.30
2019-05-25T20:22:59.162Z,6.10
2019-05-25T20:25:29.473Z,5.70
2019-05-25T20:27:59.672Z,6.03
2019-05-25T20:34:11.491Z,6.03
2019-05-25T20:36:41.788Z,6.70
2019-05-25T20:39:12.071Z,6.80
2019-05-25T20:41:42.295Z,7.35
2019-05-25T20:44:12.488Z,6.60
2019-05-25T20:47:04.093Z,6.37
2019-05-25T20:49:34.433Z,6.60
2019-05-25T20:52:04.744Z,6.87
2019-05-25T20:54:34.933Z,7.12
2019-05-25T20:57:05.316Z,7.65
2019-05-25T20:59:36.799Z,7.75
2019-05-25T21:02:07.030Z,7.22
2019-05-25T21:04:37.286Z,7.17
2019-05-25T21:07:07.583Z,8.23
2019-05-25T21:09:37.915Z,8.30
2019-05-25T21:12:09.901Z,7.85
2019-05-25T21:14:40.236Z,8.30
2019-05-25T21:17:10.527Z,7.83
2019-05-25T21:19:40.785Z,8.15
2019-05-25T21:22:11.074Z,7.72
2019-05-25T21:24:41.403Z,8.55
2019-05-25T21:27:11.659Z,7.58
2019-05-25T21:29:41.893Z,8.28
2019-05-25T21:32:12.180Z,8.03
2019-05-25T21:34:42.379Z,8.60
2019-05-25T21:37:12.589Z,7.97
2019-05-25T21:39:42.796Z,8.00
2019-05-25T21:42:13.037Z,7.75
2019-05-25T21:44:43.218Z,8.80
2019-05-25T21:47:13.515Z,8.38
2019-05-25T21:49:43.767Z,8.23
2019-05-25T21:52:14.071Z,8.58
2019-05-25T21:54:44.313Z,8.03
2019-05-25T21:57:14.519Z,7.65
2019-05-25T21:59:44.720Z,9.10
2019-05-25T22:02:50.995Z,8.80
2019-05-25T22:05:21.268Z,8.50
2019-05-25T22:07:51.622Z,9.80
2019-05-25T22:10:21.815Z,9.95
2019-05-25T22:12:52.019Z,9.90
2019-05-25T22:15:22.303Z,11.12
2019-05-25T22:17:52.518Z,12.10
2019-05-25T22:20:22.719Z,12.85
2019-05-25T22:22:52.945Z,12.70
2019-05-25T22:25:23.199Z,11.15
2019-05-25T22:27:53.416Z,11.10
2019-05-25T22:30:23.615Z,9.83
2019-05-25T22:33:11.858Z,10.72
2019-05-25T22:35:42.070Z,10.45
2019-05-25T22:38:12.525Z,10.38
2019-05-25T22:40:42.997Z,10.23
2019-05-25T22:43:13.303Z,10.05
2019-05-25T22:45:43.518Z,10.20
2019-05-25T22:48:13.823Z,11.18
2019-05-25T22:50:44.019Z,10.23
2019-05-25T22:53:14.243Z,11.15
2019-05-25T22:55:44.450Z,11.00
2019-05-25T22:58:14.654Z,11.73
2019-05-25T23:00:44.864Z,11.38
2019-05-25T23:03:16.084Z,11.53
2019-05-25T23:05:46.288Z,11.33
2019-05-25T23:08:16.571Z,12.90
2019-05-25T23:10:46.762Z,12.15
2019-05-25T23:13:16.986Z,13.50
2019-05-25T23:15:47.191Z,13.20
2019-05-25T23:18:37.431Z,12.85
2019-05-25T23:21:07.703Z,12.03
2019-05-25T23:23:37.933Z,11.93
2019-05-25T23:26:08.191Z,11.45
2019-05-25T23:28:38.476Z,12.43
2019-05-25T23:31:08.671Z,11.25
2019-05-25T23:33:39.031Z,10.98
2019-05-25T23:36:09.230Z,10.60
2019-05-25T23:38:39.444Z,9.65
2019-05-25T23:41:10.694Z,9.78
2019-05-25T23:43:40.914Z,8.90
2019-05-25T23:46:11.109Z,9.33
2019-05-25T23:48:56.533Z,8.85
2019-05-25T23:51:26.734Z,9.00
2019-05-25T23:53:56.951Z,9.28
2019-05-25T23:56:27.143Z,9.73
2019-05-25T23:58:57.448Z,9.50
